sensor_id;sensor_type;location;lat;lon;timestamp;temperature;humidity
17529;DHT22;8882;53.192;8.184;2023-05-07T07:01:09;9.50;99.90
17529;DHT22;8882;53.192;8.184;2023-05-07T07:03:35;9.50;99.90
17529;DHT22;8882;53.192;8.184;2023-05-07T07:06:00;9.50;99.90
17529;DHT22;8882;53.192;8.184;2023-05-07T07:08:27;9.60;99.90
17529;DHT22;8882;53.192;8.184;2023-05-07T07:10:52;9.60;99.90
17529;DHT22;8882;53.192;8.184;2023-05-07T07:13:18;9.60;99.90
17529;DHT22;8882;53.192;8.184;2023-05-07T07:15:44;9.70;99.90
17529;DHT22;8882;53.192;8.184;2023-05-07T07:18:10;9.70;99.90
17529;DHT22;8882;53.192;8.184;2023-05-07T07:20:36;9.80;99.90
17529;DHT22;8882;53.192;8.184;2023-05-07T07:23:01;9.80;99.90
17529;DHT22;8882;53.192;8.184;2023-05-07T07:25:27;9.80;99.90
17529;DHT22;8882;53.192;8.184;2023-05-07T07:27:52;9.80;99.90
17529;DHT22;8882;53.192;8.184;2023-05-07T07:30:17;9.80;99.90
17529;DHT22;8882;53.192;8.184;2023-05-07T07:32:43;9.80;99.90
17529;DHT22;8882;53.192;8.184;2023-05-07T07:35:09;9.80;99.90
17529;DHT22;8882;53.192;8.184;2023-05-07T07:37:34;9.90;99.90
17529;DHT22;8882;53.192;8.184;2023-05-07T07:40:00;9.90;99.90
17529;DHT22;8882;53.192;8.184;2023-05-07T07:42:25;9.90;99.90
17529;DHT22;8882;53.192;8.184;2023-05-07T07:44:51;9.90;99.90
17529;DHT22;8882;53.192;8.184;2023-05-07T07:47:16;9.90;99.90
17529;DHT22;8882;53.192;8.184;2023-05-07T07:49:42;9.90;99.90
17529;DHT22;8882;53.192;8.184;2023-05-07T07:52:07;10.00;99.90
17529;DHT22;8882;53.192;8.184;2023-05-07T07:54:33;10.00;99.90
17529;DHT22;8882;53.192;8.184;2023-05-07T07:56:58;10.10;99.90
17529;DHT22;8882;53.192;8.184;2023-05-07T07:59:24;10.10;99.90
17529;DHT22;8882;53.192;8.184;2023-05-07T08:01:49;10.10;99.90
17529;DHT22;8882;53.192;8.184;2023-05-07T08:04:17;10.20;99.90
17529;DHT22;8882;53.192;8.184;2023-05-07T08:06:42;10.20;99.90
17529;DHT22;8882;53.192;8.184;2023-05-07T08:09:08;10.10;99.90
17529;DHT22;8882;53.192;8.184;2023-05-07T08:11:34;10.10;99.90
17529;DHT22;8882;53.192;8.184;2023-05-07T08:13:59;10.20;99.90
17529;DHT22;8882;53.192;8.184;2023-05-07T08:16:25;10.20;99.90
17529;DHT22;8882;53.192;8.184;2023-05-07T08:18:51;10.20;99.90
17529;DHT22;8882;53.192;8.184;2023-05-07T08:21:16;10.20;99.90
17529;DHT22;8882;53.192;8.184;2023-05-07T08:23:42;10.20;99.90
17529;DHT22;8882;53.192;8.184;2023-05-07T08:26:08;10.20;99.90
17529;DHT22;8882;53.192;8.184;2023-05-07T08:28:34;10.30;99.90
17529;DHT22;8882;53.192;8.184;2023-05-07T08:30:59;10.20;99.90
17529;DHT22;8882;53.192;8.184;2023-05-07T08:33:26;10.20;99.90
17529;DHT22;8882;53.192;8.184;2023-05-07T08:35:52;10.30;99.90
17529;DHT22;8882;53.192;8.184;2023-05-07T08:38:17;10.20;99.90
17529;DHT22;8882;53.192;8.184;2023-05-07T08:40:42;10.30;99.90
17529;DHT22;8882;53.192;8.184;2023-05-07T08:43:08;10.30;99.90
17529;DHT22;8882;53.192;8.184;2023-05-07T08:45:39;10.30;99.90
17529;DHT22;8882;53.192;8.184;2023-05-07T08:48:14;10.40;99.90
17529;DHT22;8882;53.192;8.184;2023-05-07T08:50:40;10.40;99.90
17529;DHT22;8882;53.192;8.184;2023-05-07T08:53:06;10.40;99.90
17529;DHT22;8882;53.192;8.184;2023-05-07T08:55:31;10.50;99.90
17529;DHT22;8882;53.192;8.184;2023-05-07T08:57:58;10.50;99.90
17529;DHT22;8882;53.192;8.184;2023-05-07T09:00:24;10.50;99.90
17529;DHT22;8882;53.192;8.184;2023-05-07T09:02:49;10.60;99.90
17529;DHT22;8882;53.192;8.184;2023-05-07T09:05:15;10.70;99.90
17529;DHT22;8882;53.192;8.184;2023-05-07T09:07:41;10.80;99.90
17529;DHT22;8882;53.192;8.184;2023-05-07T09:10:07;10.90;99.90
17529;DHT22;8882;53.192;8.184;2023-05-07T09:12:32;11.00;99.90
17529;DHT22;8882;53.192;8.184;2023-05-07T09:15:00;11.10;99.90
17529;DHT22;8882;53.192;8.184;2023-05-07T09:17:26;11.10;99.90
17529;DHT22;8882;53.192;8.184;2023-05-07T09:19:52;11.20;99.90
17529;DHT22;8882;53.192;8.184;2023-05-07T09:22:18;11.20;99.90
17529;DHT22;8882;53.192;8.184;2023-05-07T09:24:51;11.20;99.90
17529;DHT22;8882;53.192;8.184;2023-05-07T09:27:17;11.30;99.90
17529;DHT22;8882;53.192;8.184;2023-05-07T09:29:44;11.30;99.90
17529;DHT22;8882;53.192;8.184;2023-05-07T09:32:09;11.20;99.90
17529;DHT22;8882;53.192;8.184;2023-05-07T09:34:35;11.30;99.90
17529;DHT22;8882;53.192;8.184;2023-05-07T09:37:05;11.40;99.90
17529;DHT22;8882;53.192;8.184;2023-05-07T09:39:43;11.40;99.90
17529;DHT22;8882;53.192;8.184;2023-05-07T09:42:09;11.50;99.90
17529;DHT22;8882;53.192;8.184;2023-05-07T09:44:35;11.60;99.90
17529;DHT22;8882;53.192;8.184;2023-05-07T09:47:04;11.80;99.90
17529;DHT22;8882;53.192;8.184;2023-05-07T09:49:36;12.00;99.40
17529;DHT22;8882;53.192;8.184;2023-05-07T09:52:04;12.30;94.80
17529;DHT22;8882;53.192;8.184;2023-05-07T09:54:32;12.30;1.00
17529;DHT22;8882;53.192;8.184;2023-05-07T09:57:01;12.20;1.00
17529;DHT22;8882;53.192;8.184;2023-05-07T09:59:28;12.20;1.00
17529;DHT22;8882;53.192;8.184;2023-05-07T10:01:57;12.20;1.00
17529;DHT22;8882;53.192;8.184;2023-05-07T10:04:25;12.20;1.00
17529;DHT22;8882;53.192;8.184;2023-05-07T10:06:50;12.30;1.00
17529;DHT22;8882;53.192;8.184;2023-05-07T10:09:16;12.20;1.00
17529;DHT22;8882;53.192;8.184;2023-05-07T10:11:42;12.30;1.00
17529;DHT22;8882;53.192;8.184;2023-05-07T10:14:10;12.30;1.00
17529;DHT22;8882;53.192;8.184;2023-05-07T10:16:36;12.40;1.00
17529;DHT22;8882;53.192;8.184;2023-05-07T10:19:03;12.60;1.00
17529;DHT22;8882;53.192;8.184;2023-05-07T10:21:30;12.70;99.90
17529;DHT22;8882;53.192;8.184;2023-05-07T10:24:00;12.90;99.90
17529;DHT22;8882;53.192;8.184;2023-05-07T10:26:29;12.80;1.00
17529;DHT22;8882;53.192;8.184;2023-05-07T10:29:02;13.10;1.00
17529;DHT22;8882;53.192;8.184;2023-05-07T10:34:18;13.20;1.00
17529;DHT22;8882;53.192;8.184;2023-05-07T10:36:45;13.20;1.00
17529;DHT22;8882;53.192;8.184;2023-05-07T10:39:10;13.20;1.00
17529;DHT22;8882;53.192;8.184;2023-05-07T10:41:36;13.20;1.00
17529;DHT22;8882;53.192;8.184;2023-05-07T10:44:02;13.30;1.00
17529;DHT22;8882;53.192;8.184;2023-05-07T10:46:28;13.20;1.00
17529;DHT22;8882;53.192;8.184;2023-05-07T10:51:26;13.10;99.90
17529;DHT22;8882;53.192;8.184;2023-05-07T10:54:18;13.20;1.00
17529;DHT22;8882;53.192;8.184;2023-05-07T10:56:44;13.20;1.00
17529;DHT22;8882;53.192;8.184;2023-05-07T11:01:56;13.40;1.00
17529;DHT22;8882;53.192;8.184;2023-05-07T11:04:23;13.40;1.00
17529;DHT22;8882;53.192;8.184;2023-05-07T11:17:52;13.80;1.00
17529;DHT22;8882;53.192;8.184;2023-05-07T11:20:18;13.90;99.90
17529;DHT22;8882;53.192;8.184;2023-05-07T11:22:43;14.00;1.00
17529;DHT22;8882;53.192;8.184;2023-05-07T11:25:09;14.00;19.40
17529;DHT22;8882;53.192;8.184;2023-05-07T11:27:35;14.00;1.00
17529;DHT22;8882;53.192;8.184;2023-05-07T11:30:00;14.00;99.90
17529;DHT22;8882;53.192;8.184;2023-05-07T11:32:31;14.10;1.00
17529;DHT22;8882;53.192;8.184;2023-05-07T11:34:59;14.10;99.90
17529;DHT22;8882;53.192;8.184;2023-05-07T11:37:25;14.20;1.00
17529;DHT22;8882;53.192;8.184;2023-05-07T11:40:05;14.00;1.00
17529;DHT22;8882;53.192;8.184;2023-05-07T11:42:33;14.10;1.00
17529;DHT22;8882;53.192;8.184;2023-05-07T11:45:00;14.00;99.90
17529;DHT22;8882;53.192;8.184;2023-05-07T11:47:26;14.20;99.90
17529;DHT22;8882;53.192;8.184;2023-05-07T11:49:53;14.30;1.00
17529;DHT22;8882;53.192;8.184;2023-05-07T11:52:21;14.10;1.00
17529;DHT22;8882;53.192;8.184;2023-05-07T11:54:57;14.00;1.00
17529;DHT22;8882;53.192;8.184;2023-05-07T11:57:24;14.00;82.10
17529;DHT22;8882;53.192;8.184;2023-05-07T11:59:56;13.90;99.90
17529;DHT22;8882;53.192;8.184;2023-05-07T12:02:23;14.00;1.00
17529;DHT22;8882;53.192;8.184;2023-05-07T12:04:53;14.00;1.00
17529;DHT22;8882;53.192;8.184;2023-05-07T12:07:18;14.00;99.90
17529;DHT22;8882;53.192;8.184;2023-05-07T12:09:45;14.00;53.10
17529;DHT22;8882;53.192;8.184;2023-05-07T12:12:11;14.10;99.90
17529;DHT22;8882;53.192;8.184;2023-05-07T12:14:41;14.20;1.00
17529;DHT22;8882;53.192;8.184;2023-05-07T12:17:08;14.40;1.00
17529;DHT22;8882;53.192;8.184;2023-05-07T12:19:34;14.60;1.00
17529;DHT22;8882;53.192;8.184;2023-05-07T12:22:02;14.70;1.00
17529;DHT22;8882;53.192;8.184;2023-05-07T12:24:28;14.60;1.00
17529;DHT22;8882;53.192;8.184;2023-05-07T12:26:53;14.50;1.00
17529;DHT22;8882;53.192;8.184;2023-05-07T12:29:22;14.50;1.00
17529;DHT22;8882;53.192;8.184;2023-05-07T12:31:49;14.40;1.00
17529;DHT22;8882;53.192;8.184;2023-05-07T12:34:15;14.30;1.00
17529;DHT22;8882;53.192;8.184;2023-05-07T12:36:41;14.50;1.00
17529;DHT22;8882;53.192;8.184;2023-05-07T12:39:07;14.60;1.00
17529;DHT22;8882;53.192;8.184;2023-05-07T12:41:54;14.50;1.00
17529;DHT22;8882;53.192;8.184;2023-05-07T12:44:22;14.40;1.00
17529;DHT22;8882;53.192;8.184;2023-05-07T12:46:49;14.50;1.00
17529;DHT22;8882;53.192;8.184;2023-05-07T12:49:15;14.50;1.00
17529;DHT22;8882;53.192;8.184;2023-05-07T12:51:40;14.50;1.00
17529;DHT22;8882;53.192;8.184;2023-05-07T12:54:06;14.50;1.00
17529;DHT22;8882;53.192;8.184;2023-05-07T12:56:35;14.50;1.00
17529;DHT22;8882;53.192;8.184;2023-05-07T12:59:00;14.40;1.00
17529;DHT22;8882;53.192;8.184;2023-05-07T13:01:29;14.40;1.00
17529;DHT22;8882;53.192;8.184;2023-05-07T13:04:01;14.40;1.00
17529;DHT22;8882;53.192;8.184;2023-05-07T13:06:27;14.50;1.00
17529;DHT22;8882;53.192;8.184;2023-05-07T13:08:53;14.50;1.00
17529;DHT22;8882;53.192;8.184;2023-05-07T13:11:18;14.60;1.00
17529;DHT22;8882;53.192;8.184;2023-05-07T13:13:44;14.60;1.00
17529;DHT22;8882;53.192;8.184;2023-05-07T13:16:10;14.60;1.00
17529;DHT22;8882;53.192;8.184;2023-05-07T13:18:38;14.60;1.00
17529;DHT22;8882;53.192;8.184;2023-05-07T13:21:04;14.60;1.00
17529;DHT22;8882;53.192;8.184;2023-05-07T13:23:30;14.60;1.00
17529;DHT22;8882;53.192;8.184;2023-05-07T13:25:55;14.70;1.00
17529;DHT22;8882;53.192;8.184;2023-05-07T13:28:22;14.90;99.90
17529;DHT22;8882;53.192;8.184;2023-05-07T13:30:48;14.90;99.90
17529;DHT22;8882;53.192;8.184;2023-05-07T13:33:14;15.10;99.90
17529;DHT22;8882;53.192;8.184;2023-05-07T13:35:40;15.10;99.90
17529;DHT22;8882;53.192;8.184;2023-05-07T13:38:06;15.20;99.90
17529;DHT22;8882;53.192;8.184;2023-05-07T13:40:31;15.30;99.90
17529;DHT22;8882;53.192;8.184;2023-05-07T13:42:58;15.30;99.90
17529;DHT22;8882;53.192;8.184;2023-05-07T13:45:24;15.30;96.60
17529;DHT22;8882;53.192;8.184;2023-05-07T13:47:51;15.30;99.90
17529;DHT22;8882;53.192;8.184;2023-05-07T13:50:17;15.30;99.90
17529;DHT22;8882;53.192;8.184;2023-05-07T13:52:43;15.50;99.90
17529;DHT22;8882;53.192;8.184;2023-05-07T13:55:16;15.60;1.00
17529;DHT22;8882;53.192;8.184;2023-05-07T13:57:41;15.60;45.70
17529;DHT22;8882;53.192;8.184;2023-05-07T14:00:07;15.60;1.00
17529;DHT22;8882;53.192;8.184;2023-05-07T14:02:33;15.70;1.00
17529;DHT22;8882;53.192;8.184;2023-05-07T14:04:59;15.60;1.00
17529;DHT22;8882;53.192;8.184;2023-05-07T14:07:25;15.60;1.00
17529;DHT22;8882;53.192;8.184;2023-05-07T14:09:50;15.60;42.10
17529;DHT22;8882;53.192;8.184;2023-05-07T14:12:16;15.60;1.00
17529;DHT22;8882;53.192;8.184;2023-05-07T14:14:41;15.50;1.00
17529;DHT22;8882;53.192;8.184;2023-05-07T14:17:07;15.60;1.00
17529;DHT22;8882;53.192;8.184;2023-05-07T14:19:33;15.60;1.00
17529;DHT22;8882;53.192;8.184;2023-05-07T14:21:59;15.80;99.70
17529;DHT22;8882;53.192;8.184;2023-05-07T14:24:24;15.70;1.00
17529;DHT22;8882;53.192;8.184;2023-05-07T14:26:50;15.70;1.00
17529;DHT22;8882;53.192;8.184;2023-05-07T14:29:16;15.70;1.00
17529;DHT22;8882;53.192;8.184;2023-05-07T14:31:44;15.80;1.00
17529;DHT22;8882;53.192;8.184;2023-05-07T14:34:10;15.70;1.00
17529;DHT22;8882;53.192;8.184;2023-05-07T14:36:36;15.90;22.70
17529;DHT22;8882;53.192;8.184;2023-05-07T14:39:01;16.00;1.00
17529;DHT22;8882;53.192;8.184;2023-05-07T14:41:27;16.10;1.00
17529;DHT22;8882;53.192;8.184;2023-05-07T14:43:53;16.20;1.00
17529;DHT22;8882;53.192;8.184;2023-05-07T14:46:18;16.20;1.00
17529;DHT22;8882;53.192;8.184;2023-05-07T14:48:45;16.10;1.00
17529;DHT22;8882;53.192;8.184;2023-05-07T14:51:11;16.10;1.00
17529;DHT22;8882;53.192;8.184;2023-05-07T14:53:37;16.00;1.00
17529;DHT22;8882;53.192;8.184;2023-05-07T14:56:03;16.00;1.00
17529;DHT22;8882;53.192;8.184;2023-05-07T14:58:28;16.00;1.00
17529;DHT22;8882;53.192;8.184;2023-05-07T15:00:54;16.00;1.00
17529;DHT22;8882;53.192;8.184;2023-05-07T15:03:20;16.10;1.00
17529;DHT22;8882;53.192;8.184;2023-05-07T15:05:45;16.10;1.00
17529;DHT22;8882;53.192;8.184;2023-05-07T15:08:11;16.10;1.00
17529;DHT22;8882;53.192;8.184;2023-05-07T15:10:37;16.00;1.00
17529;DHT22;8882;53.192;8.184;2023-05-07T15:13:07;16.10;1.00
17529;DHT22;8882;53.192;8.184;2023-05-07T15:15:33;16.10;1.00
17529;DHT22;8882;53.192;8.184;2023-05-07T15:17:58;16.20;1.00
17529;DHT22;8882;53.192;8.184;2023-05-07T15:20:25;16.30;1.00
17529;DHT22;8882;53.192;8.184;2023-05-07T15:22:51;16.30;1.00
17529;DHT22;8882;53.192;8.184;2023-05-07T15:25:17;16.30;1.00
17529;DHT22;8882;53.192;8.184;2023-05-07T15:27:42;16.30;1.00
17529;DHT22;8882;53.192;8.184;2023-05-07T15:30:08;16.30;1.00
17529;DHT22;8882;53.192;8.184;2023-05-07T15:32:35;16.30;1.00
17529;DHT22;8882;53.192;8.184;2023-05-07T15:35:02;16.20;1.00
17529;DHT22;8882;53.192;8.184;2023-05-07T15:37:27;16.20;1.00
17529;DHT22;8882;53.192;8.184;2023-05-07T15:39:53;16.20;1.00
17529;DHT22;8882;53.192;8.184;2023-05-07T15:42:18;16.20;1.00
17529;DHT22;8882;53.192;8.184;2023-05-07T15:44:44;16.20;1.00
17529;DHT22;8882;53.192;8.184;2023-05-07T15:47:10;16.20;1.00
17529;DHT22;8882;53.192;8.184;2023-05-07T15:49:35;16.20;1.00
17529;DHT22;8882;53.192;8.184;2023-05-07T15:52:01;16.30;1.00
17529;DHT22;8882;53.192;8.184;2023-05-07T15:54:26;16.50;1.00
17529;DHT22;8882;53.192;8.184;2023-05-07T15:56:52;16.50;1.00
17529;DHT22;8882;53.192;8.184;2023-05-07T15:59:17;16.40;1.00
17529;DHT22;8882;53.192;8.184;2023-05-07T16:01:43;16.30;1.00
17529;DHT22;8882;53.192;8.184;2023-05-07T16:04:09;16.20;1.00
17529;DHT22;8882;53.192;8.184;2023-05-07T16:06:35;16.20;1.00
17529;DHT22;8882;53.192;8.184;2023-05-07T16:09:00;16.10;1.00
17529;DHT22;8882;53.192;8.184;2023-05-07T16:11:26;16.00;1.00
17529;DHT22;8882;53.192;8.184;2023-05-07T16:13:54;16.00;1.00
17529;DHT22;8882;53.192;8.184;2023-05-07T16:16:20;16.00;1.00
17529;DHT22;8882;53.192;8.184;2023-05-07T16:18:46;16.00;1.00
17529;DHT22;8882;53.192;8.184;2023-05-07T16:21:11;16.00;1.00
17529;DHT22;8882;53.192;8.184;2023-05-07T16:23:37;16.00;1.00
17529;DHT22;8882;53.192;8.184;2023-05-07T16:26:02;15.90;1.00
17529;DHT22;8882;53.192;8.184;2023-05-07T16:28:29;15.80;1.00
17529;DHT22;8882;53.192;8.184;2023-05-07T16:30:55;15.70;1.00
17529;DHT22;8882;53.192;8.184;2023-05-07T16:33:20;15.70;1.00
17529;DHT22;8882;53.192;8.184;2023-05-07T16:35:55;15.70;1.00
17529;DHT22;8882;53.192;8.184;2023-05-07T16:38:20;15.70;1.00
17529;DHT22;8882;53.192;8.184;2023-05-07T16:40:46;15.70;1.00
17529;DHT22;8882;53.192;8.184;2023-05-07T16:43:12;15.60;1.00
17529;DHT22;8882;53.192;8.184;2023-05-07T16:45:37;15.50;1.00
17529;DHT22;8882;53.192;8.184;2023-05-07T16:48:03;15.50;1.00
17529;DHT22;8882;53.192;8.184;2023-05-07T16:50:29;15.50;1.00
17529;DHT22;8882;53.192;8.184;2023-05-07T16:52:55;15.50;1.00
17529;DHT22;8882;53.192;8.184;2023-05-07T16:55:20;15.50;1.00
17529;DHT22;8882;53.192;8.184;2023-05-07T16:57:46;15.40;1.00
17529;DHT22;8882;53.192;8.184;2023-05-07T17:00:12;15.50;1.00
17529;DHT22;8882;53.192;8.184;2023-05-07T17:02:37;15.50;1.00
17529;DHT22;8882;53.192;8.184;2023-05-07T17:05:03;15.50;1.00
17529;DHT22;8882;53.192;8.184;2023-05-07T17:07:30;15.50;1.00
17529;DHT22;8882;53.192;8.184;2023-05-07T17:09:56;15.60;1.00
17529;DHT22;8882;53.192;8.184;2023-05-07T17:12:21;15.50;1.00
17529;DHT22;8882;53.192;8.184;2023-05-07T17:14:47;15.50;1.00
17529;DHT22;8882;53.192;8.184;2023-05-07T17:17:12;15.50;1.00
17529;DHT22;8882;53.192;8.184;2023-05-07T17:19:38;15.50;1.00
17529;DHT22;8882;53.192;8.184;2023-05-07T17:22:04;15.50;1.00
17529;DHT22;8882;53.192;8.184;2023-05-07T17:24:29;15.40;1.00
17529;DHT22;8882;53.192;8.184;2023-05-07T17:26:55;15.40;1.00
17529;DHT22;8882;53.192;8.184;2023-05-07T17:29:20;15.30;1.00
17529;DHT22;8882;53.192;8.184;2023-05-07T17:31:46;15.40;1.00
17529;DHT22;8882;53.192;8.184;2023-05-07T17:34:12;15.30;1.00
17529;DHT22;8882;53.192;8.184;2023-05-07T17:36:38;15.30;1.00
17529;DHT22;8882;53.192;8.184;2023-05-07T17:39:03;15.30;1.00
17529;DHT22;8882;53.192;8.184;2023-05-07T17:41:29;15.30;1.00
17529;DHT22;8882;53.192;8.184;2023-05-07T17:43:54;15.30;1.00
17529;DHT22;8882;53.192;8.184;2023-05-07T17:46:20;15.30;1.00
17529;DHT22;8882;53.192;8.184;2023-05-07T17:48:45;15.30;1.00
17529;DHT22;8882;53.192;8.184;2023-05-07T17:51:11;15.20;1.00
17529;DHT22;8882;53.192;8.184;2023-05-07T17:53:36;15.10;1.00
17529;DHT22;8882;53.192;8.184;2023-05-07T17:56:02;15.00;1.00
17529;DHT22;8882;53.192;8.184;2023-05-07T17:58:27;15.00;1.00
17529;DHT22;8882;53.192;8.184;2023-05-07T18:00:53;14.90;1.00
17529;DHT22;8882;53.192;8.184;2023-05-07T18:03:19;14.90;1.00
17529;DHT22;8882;53.192;8.184;2023-05-07T18:05:45;14.90;1.00
17529;DHT22;8882;53.192;8.184;2023-05-07T18:08:11;14.90;1.00
17529;DHT22;8882;53.192;8.184;2023-05-07T18:10:37;14.90;1.00
17529;DHT22;8882;53.192;8.184;2023-05-07T18:13:02;14.80;1.00
17529;DHT22;8882;53.192;8.184;2023-05-07T18:15:28;14.80;1.00
17529;DHT22;8882;53.192;8.184;2023-05-07T18:17:53;14.80;1.00
17529;DHT22;8882;53.192;8.184;2023-05-07T18:20:19;14.70;1.00
17529;DHT22;8882;53.192;8.184;2023-05-07T18:22:44;14.70;1.00
17529;DHT22;8882;53.192;8.184;2023-05-07T18:25:10;14.70;1.00
17529;DHT22;8882;53.192;8.184;2023-05-07T18:27:36;14.70;1.00
17529;DHT22;8882;53.192;8.184;2023-05-07T18:30:02;14.60;1.00
17529;DHT22;8882;53.192;8.184;2023-05-07T18:32:27;14.60;1.00
17529;DHT22;8882;53.192;8.184;2023-05-07T18:34:53;14.60;1.00
17529;DHT22;8882;53.192;8.184;2023-05-07T18:37:18;14.50;1.00
17529;DHT22;8882;53.192;8.184;2023-05-07T18:39:44;14.50;1.00
17529;DHT22;8882;53.192;8.184;2023-05-07T18:42:11;14.50;1.00
17529;DHT22;8882;53.192;8.184;2023-05-07T18:44:37;14.40;1.00
17529;DHT22;8882;53.192;8.184;2023-05-07T18:47:04;14.30;1.00
17529;DHT22;8882;53.192;8.184;2023-05-07T18:49:30;14.40;1.00
17529;DHT22;8882;53.192;8.184;2023-05-07T18:51:56;14.30;1.00
17529;DHT22;8882;53.192;8.184;2023-05-07T18:54:21;14.30;1.00
17529;DHT22;8882;53.192;8.184;2023-05-07T18:56:47;14.20;1.00
17529;DHT22;8882;53.192;8.184;2023-05-07T18:59:13;14.20;1.00
17529;DHT22;8882;53.192;8.184;2023-05-07T19:01:38;14.20;1.00
17529;DHT22;8882;53.192;8.184;2023-05-07T19:04:04;14.20;1.00
17529;DHT22;8882;53.192;8.184;2023-05-07T19:06:29;14.10;1.00
17529;DHT22;8882;53.192;8.184;2023-05-07T19:08:55;14.10;1.00
17529;DHT22;8882;53.192;8.184;2023-05-07T19:11:22;14.00;1.00
17529;DHT22;8882;53.192;8.184;2023-05-07T19:13:47;14.00;99.60
17529;DHT22;8882;53.192;8.184;2023-05-07T19:16:13;14.00;1.00
17529;DHT22;8882;53.192;8.184;2023-05-07T19:18:39;14.00;12.00
17529;DHT22;8882;53.192;8.184;2023-05-07T19:21:06;14.00;99.90
17529;DHT22;8882;53.192;8.184;2023-05-07T19:23:32;13.90;99.90
17529;DHT22;8882;53.192;8.184;2023-05-07T19:25:58;13.90;99.90
17529;DHT22;8882;53.192;8.184;2023-05-07T19:28:24;13.80;99.90
17529;DHT22;8882;53.192;8.184;2023-05-07T19:30:51;13.80;99.90
17529;DHT22;8882;53.192;8.184;2023-05-07T19:33:17;13.80;99.90
17529;DHT22;8882;53.192;8.184;2023-05-07T19:35:43;13.80;99.90
17529;DHT22;8882;53.192;8.184;2023-05-07T19:38:09;13.70;99.90
17529;DHT22;8882;53.192;8.184;2023-05-07T19:40:35;13.70;99.90
17529;DHT22;8882;53.192;8.184;2023-05-07T19:43:01;13.70;99.90
17529;DHT22;8882;53.192;8.184;2023-05-07T19:45:26;13.70;99.90
17529;DHT22;8882;53.192;8.184;2023-05-07T19:47:52;13.60;99.90
17529;DHT22;8882;53.192;8.184;2023-05-07T19:50:17;13.60;99.90
17529;DHT22;8882;53.192;8.184;2023-05-07T19:52:43;13.60;1.00
17529;DHT22;8882;53.192;8.184;2023-05-07T19:55:08;13.60;1.00
17529;DHT22;8882;53.192;8.184;2023-05-07T19:57:34;13.60;1.00
17529;DHT22;8882;53.192;8.184;2023-05-07T20:00:00;13.50;1.00
17529;DHT22;8882;53.192;8.184;2023-05-07T20:02:26;13.50;1.00
17529;DHT22;8882;53.192;8.184;2023-05-07T20:04:51;13.50;1.00
17529;DHT22;8882;53.192;8.184;2023-05-07T20:07:17;13.40;1.00
17529;DHT22;8882;53.192;8.184;2023-05-07T20:09:42;13.40;1.00
17529;DHT22;8882;53.192;8.184;2023-05-07T20:12:08;13.30;1.00
17529;DHT22;8882;53.192;8.184;2023-05-07T20:14:33;13.30;1.00
17529;DHT22;8882;53.192;8.184;2023-05-07T20:16:59;13.30;1.00
17529;DHT22;8882;53.192;8.184;2023-05-07T20:19:25;13.20;1.00
17529;DHT22;8882;53.192;8.184;2023-05-07T20:21:50;13.20;1.00
17529;DHT22;8882;53.192;8.184;2023-05-07T20:24:17;13.10;1.00
17529;DHT22;8882;53.192;8.184;2023-05-07T20:26:44;13.10;1.00
17529;DHT22;8882;53.192;8.184;2023-05-07T20:29:09;13.10;1.00
17529;DHT22;8882;53.192;8.184;2023-05-07T20:31:35;13.00;1.00
17529;DHT22;8882;53.192;8.184;2023-05-07T20:34:01;13.00;1.00
17529;DHT22;8882;53.192;8.184;2023-05-07T20:36:27;12.90;1.00
17529;DHT22;8882;53.192;8.184;2023-05-07T20:38:52;12.90;1.00
17529;DHT22;8882;53.192;8.184;2023-05-07T20:41:18;12.90;1.00
17529;DHT22;8882;53.192;8.184;2023-05-07T20:43:45;12.90;1.00
17529;DHT22;8882;53.192;8.184;2023-05-07T20:46:11;12.80;1.00
17529;DHT22;8882;53.192;8.184;2023-05-07T20:48:36;12.80;1.00
17529;DHT22;8882;53.192;8.184;2023-05-07T20:51:02;12.80;1.00
17529;DHT22;8882;53.192;8.184;2023-05-07T20:53:28;12.80;1.00
17529;DHT22;8882;53.192;8.184;2023-05-07T20:55:54;12.80;1.00
17529;DHT22;8882;53.192;8.184;2023-05-07T20:58:20;12.70;1.00
